• Join FlightAware (Why Join?)
  • Login
  • US Flag 
03:36AM EDT


 

Airport Tracker/Info


-or-


 

Live Flight TrackerFlight Track Log ✈ N789EX ✈ 11-Nov-2013 ✈ KBFI - KBFI

Flight Track Log - Related Links

Times and Time Zones

All times are in EST time to prevent confusion due to time zone crossing. See the N789EX flight status page for this flight to view local times or setup timezone preferences in your user account.

Time Position Orientation Groundspeed Altitude Reporting Facility
EST Latitude Longitude Course Direction KTS MPH feet Rate Location/Type
05:43PM 47.4680 -122.2500 150° Southeast 198 228 2,700  Level FlightAware
05:43PM 47.4540 -122.2140 120° Southeast 214 246 3,700 1,980 Climbing FlightAware
05:44PM 47.4520 -122.1760 94° East 225 259 4,500 2,220 Climbing FlightAware
05:44PM 47.4500 -122.1310 94° East 224 258 5,700 2,340 Climbing FlightAware
05:44PM 47.4490 -122.1030 93° East 226 260 6,400 1,980 Climbing FlightAware
05:45PM 47.4610 -122.0610 67° East 255 293 7,300 1,860 Climbing FlightAware
05:45PM 47.4820 -122.0520 16° North 261 300 7,900 1,380 Climbing FlightAware
05:46PM 47.5270 -122.0690 346° North 291 335 8,600 1,500 Climbing FlightAware
05:46PM 47.5800 -122.0970 340° North 304 350 9,900 2,340 Climbing FlightAware
05:47PM 47.6350 -122.1250 341° North 300 345 11,700 2,400 Climbing FlightAware
05:48PM 47.6950 -122.1550 341° North 303 349 13,300 1,860 Climbing FlightAware
05:49PM 47.7580 -122.1880 341° North 314 361 14,600 1,080 Climbing FlightAware
05:49PM 47.8130 -122.2160 341° North 340 391 14,900 240 Climbing FlightAware
05:50PM 47.8490 -122.2300 345° North 367 422 14,900 -120 Level FlightAware
05:50PM 47.9000 -122.2260 North 407 468 14,800  Descending FlightAware
05:51PM 47.9610 -122.2150 North 444 511 14,900  Climbing FlightAware
05:52PM 48.0730 -122.1390 24° Northeast 466 536 14,800 -120 Descending FlightAware
05:52PM 48.1030 -122.0820 52° Northeast 459 528 14,800  Level FlightAware
05:53PM 48.1200 -121.9860 75° East 452 520 14,800  Level FlightAware
05:53PM 48.1140 -121.8700 94° East 449 517 14,800  Level FlightAware
05:54PM 48.1050 -121.7090 95° East 450 518 14,800  Level FlightAware
05:55PM 48.0980 -121.6010 96° East 457 526 14,800 60 Level FlightAware
05:55PM 48.0890 -121.4510 95° East 458 527 14,900  Climbing FlightAware
05:56PM 48.0820 -121.3210 95° East 406 467 14,800 -120 Descending FlightAware
05:57PM 48.0770 -121.2190 94° East 352 405 14,800  Level FlightAware
05:58PM 48.0720 -121.1090 94° East 355 409 14,800  Level FlightAware
05:58PM 48.0670 -120.9730 93° East 393 452 14,800  Level FlightAware
05:59PM 48.0660 -120.9080 91° East 393 452 14,800 -120 Level FlightAware
06:00PM 48.0580 -120.7390 94° East 398 458 14,700 -60 Descending FlightAware
06:01PM 48.0550 -120.6270 92° East 398 458 14,700 180 Level FlightAware
06:01PM 48.0386 -120.4503 92° East 444 511 15,000 60 Climbing Seattle Center
06:03PM 48.0267 -120.2661 95° East 447 514 14,900 -60 Descending Seattle Center
06:04PM 48.0175 -120.1022 95° East 402 463 14,900  Level Seattle Center
06:05PM 48.0100 -119.9558 94° East 356 410 15,000  Climbing Seattle Center
06:06PM 48.0019 -119.8164 95° East 341 392 15,000  Level Seattle Center
06:07PM 48.0036 -119.6786 89° East 340 391 15,000 -60 Level Seattle Center
06:08PM 48.0722 -119.7336 332° Northwest 337 388 14,900  Descending Seattle Center
06:09PM 48.0586 -119.8669 261° West 327 376 15,000  Climbing Seattle Center
06:10PM 48.0647 -120.0025 274° West 328 377 15,000 -60 Level Seattle Center
06:15PM 48.0890 -120.7640 274° West 14,600 -120 Descending FlightAware
06:15PM 48.0930 -120.8790 273° West 359 413 14,600  Level FlightAware
06:16PM 48.0950 -120.9530 272° West 359 413 14,600 180 Level FlightAware
06:17PM 48.1000 -121.1080 273° West 363 418 14,900 180 Climbing FlightAware
06:18PM 48.1030 -121.2070 273° West 361 415 14,900  Level FlightAware
06:18PM 48.0970 -121.2700 262° West 357 411 14,900  Level FlightAware
06:19PM 48.0780 -121.3910 257° West 361 415 14,900  Level FlightAware
06:20PM 48.0550 -121.5350 257° West 357 411 14,900  Level FlightAware
06:21PM 48.0380 -121.6440 257° West 361 415 14,900  Level FlightAware
06:21PM 48.0190 -121.7650 257° West 360 414 14,900  Level FlightAware
06:22PM 48.0080 -121.8390 257° West 364 419 14,900  Level FlightAware
06:22PM 47.9980 -121.8990 256° West 363 418 14,900  Level FlightAware
06:23PM 47.9850 -121.9850 257° West 362 417 14,900  Level FlightAware
06:24PM 47.9630 -122.1290 257° West 357 411 14,900  Level FlightAware
06:24PM 47.9520 -122.2140 259° West 360 414 14,900  Level FlightAware
06:25PM 47.9710 -122.2910 290° West 383 441 14,900  Level FlightAware
06:25PM 47.9960 -122.3140 328° Northwest 394 453 14,900  Level FlightAware
06:26PM 48.0200 -122.3210 349° North 400 460 14,900  Level FlightAware
06:26PM 48.0750 -122.2810 26° Northeast 396 456 14,900  Level FlightAware
06:26PM 48.0890 -122.2240 70° East 382 440 14,900  Level FlightAware
06:27PM 48.0690 -122.1540 113° Southeast 361 415 14,900  Level FlightAware
06:27PM 48.0370 -122.1330 156° South 351 404 14,900  Level FlightAware
06:28PM 48.0090 -122.1400 189° South 347 399 14,900  Level FlightAware
06:28PM 47.9850 -122.1670 217° Southwest 349 402 14,900  Level FlightAware
06:28PM 47.9650 -122.2260 243° Southwest 356 410 14,900  Level FlightAware
06:29PM 47.9630 -122.2450 261° West 360 414 14,900  Level FlightAware
06:29PM 48.0040 -122.3430 302° West 390 449 14,900  Level FlightAware
06:30PM 48.0400 -122.3580 344° North 399 459 14,900  Level FlightAware
06:30PM 48.0810 -122.3450 12° North 403 464 14,900  Level FlightAware
06:30PM 48.1110 -122.3110 37° Northeast 398 458 14,900  Level FlightAware
06:31PM 48.1290 -122.2530 65° Northeast 388 447 14,900  Level FlightAware
06:31PM 48.1210 -122.1820 100° East 371 427 14,900  Level FlightAware
06:32PM 48.0910 -122.1370 135° Southeast 358 412 14,900  Level FlightAware
06:32PM 48.0320 -122.1200 169° South 349 402 14,900  Level FlightAware
06:33PM 47.9690 -122.1350 189° South 344 396 14,900  Level FlightAware
06:33PM 47.9390 -122.1740 221° Southwest 347 399 14,900  Level FlightAware
06:34PM 47.9230 -122.2390 250° West 358 412 14,900  Level FlightAware
06:34PM 47.9280 -122.3010 277° West 368 423 14,900  Level FlightAware
06:35PM 47.9610 -122.3740 304° West 391 450 14,900  Level FlightAware
06:35PM 48.0050 -122.3930 344° North 403 464 14,900  Level FlightAware
06:36PM 48.0400 -122.3760 18° North 404 465 14,900  Level FlightAware
06:36PM 48.0640 -122.3370 47° Northeast 397 457 14,900  Level FlightAware
06:36PM 48.0710 -122.2990 75° East 390 449 14,900  Level FlightAware
06:37PM 48.0520 -122.2260 111° Southeast 363 418 14,900  Level FlightAware
06:37PM 48.0180 -122.2030 156° South 347 399 14,900  Level FlightAware
06:38PM 47.9730 -122.2300 202° Southwest 345 397 14,900  Level FlightAware
06:38PM 47.9590 -122.2710 243° Southwest 354 407 14,900 -600 Level FlightAware
06:39PM 47.9740 -122.3530 285° West 379 436 14,400 -1,500 Descending FlightAware
06:39PM 48.0230 -122.4510 307° West 383 441 13,000 -1,920 Descending FlightAware
06:40PM 48.0690 -122.5330 310° West 354 407 11,600 -1,320 Descending FlightAware
06:41PM 48.1270 -122.6380 310° West 345 397 10,800 -600 Descending FlightAware
06:41PM 48.1550 -122.6900 309° West 342 394 10,800 60 Level FlightAware
06:42PM 48.1950 -122.7940 300° West 335 386 10,900  Climbing FlightAware
06:43PM 48.2430 -122.9110 302° West 327 376 10,900 -120 Level FlightAware
06:44PM 48.2620 -122.9160 350° North 323 372 10,800 -120 Descending FlightAware
06:44PM 48.3040 -122.8810 29° Northeast 282 325 10,800 60 Level FlightAware
06:44PM 48.3090 -122.8530 75° East 258 297 10,900 120 Climbing FlightAware
06:45PM 48.3000 -122.8100 107° East 244 281 10,900  Level FlightAware
06:46PM 48.2670 -122.7490 129° Southeast 233 268 10,900 60 Level FlightAware
06:46PM 48.2370 -122.6990 132° Southeast 214 246 11,000 60 Climbing FlightAware
06:47PM 48.2030 -122.6440 133° Southeast 188 216 11,000 -120 Level FlightAware
06:48PM 48.1790 -122.6110 137° Southeast 184 212 10,900 -120 Descending FlightAware
06:49PM 48.1430 -122.5660 140° Southeast 219 252 10,900  Level FlightAware
06:49PM 48.1210 -122.5510 156° South 216 249 10,900 -120 Level FlightAware
06:50PM 48.0900 -122.5370 163° South 217 250 10,800 -660 Descending FlightAware
06:50PM 48.0570 -122.5280 170° South 216 249 10,200 -720 Descending FlightAware
06:51PM 48.0210 -122.5200 172° South 208 239 10,000 -1,200 Descending FlightAware
06:51PM 47.9910 -122.5130 171° South 218 251 8,900 -2,100 Descending FlightAware
06:52PM 47.9650 -122.5080 173° South 205 236 8,000 -2,160 Descending FlightAware
06:52PM 47.9400 -122.5030 172° South 202 232 7,000 -2,460 Descending FlightAware
06:53PM 47.9170 -122.4990 173° South 208 239 5,900 -2,160 Descending FlightAware
06:53PM 47.8740 -122.4890 171° South 206 237 4,500 -1,740 Descending FlightAware
06:54PM 47.8490 -122.4750 159° South 201 231 3,800 -1,260 Descending FlightAware
06:54PM 47.8240 -122.4590 157° South 204 235 3,300 -1,200 Descending FlightAware
06:55PM 47.7960 -122.4470 164° South 206 237 2,600 -960 Descending FlightAware
06:56PM 47.7620 -122.4420 174° South 196 226 2,200 -540 Descending FlightAware
06:56PM 47.7400 -122.4420 180° South 193 222 2,100 -180 Descending FlightAware
06:56PM 47.7210 -122.4420 180° South 194 223 2,100  Level FlightAware
06:57PM 47.6860 -122.4380 176° South 190 219 2,100  Level FlightAware
06:57PM 47.6740 -122.4280 151° Southeast 188 216 2,100  Level FlightAware
06:58PM 47.6490 -122.4040 147° Southeast 188 216 2,100  Level FlightAware
06:58PM 47.6470 -122.4020 146° Southeast 168 193 2,100  Level FlightAware
06:58PM 47.6330 -122.3890 148° Southeast 168 193 2,100 -600 Level FlightAware
06:59PM 47.6053 -122.3675 148° Southeast 147 169 1,500 -900 Descending Seattle Center
06:59PM 47.5911 -122.3553 150° Southeast 153 176 1,200 -960 Descending Seattle Center
07:00PM 47.5603 -122.3300 151° Southeast 166 191 500 -840 Descending Seattle Center
07:00PM 47.5500 -122.3197 146° Southeast 165 190 400 -360 Descending Seattle Center
07:03PM 47.5300 -122.3020 188° South  Level Estimated